createdAt,value
2019-05-17T00:01:37.590Z,99.90
2019-05-17T00:04:07.168Z,99.90
2019-05-17T00:06:36.933Z,99.90
2019-05-17T00:09:07.257Z,99.90
2019-05-17T00:11:36.781Z,99.90
2019-05-17T00:14:06.422Z,99.90
2019-05-17T00:16:37.500Z,99.90
2019-05-17T00:19:07.509Z,99.90
2019-05-17T00:21:37.065Z,99.90
2019-05-17T00:24:06.650Z,99.90
2019-05-17T00:26:36.302Z,99.90
2019-05-17T00:29:06.863Z,99.90
2019-05-17T00:31:37.019Z,99.90
2019-05-17T00:34:07.297Z,99.90
2019-05-17T00:36:37.442Z,99.90
2019-05-17T00:39:07.629Z,99.90
2019-05-17T00:41:37.498Z,99.90
2019-05-17T00:44:06.708Z,99.90
2019-05-17T00:46:37.310Z,99.90
2019-05-17T00:49:06.614Z,99.90
2019-05-17T00:51:36.941Z,99.90
2019-05-17T00:54:06.789Z,99.90
2019-05-17T00:56:37.255Z,99.90
2019-05-17T00:59:07.444Z,99.90
2019-05-17T01:01:36.619Z,99.90
2019-05-17T01:04:06.846Z,99.90
2019-05-17T01:06:37.620Z,99.90
2019-05-17T01:09:07.934Z,99.90
2019-05-17T01:11:36.827Z,99.90
2019-05-17T01:14:06.819Z,99.90
2019-05-17T01:16:36.776Z,99.90
2019-05-17T01:19:06.804Z,99.90
2019-05-17T01:21:36.714Z,99.90
2019-05-17T01:24:06.860Z,99.90
2019-05-17T01:26:37.382Z,99.90
2019-05-17T01:29:06.796Z,99.90
2019-05-17T01:31:37.404Z,99.90
2019-05-17T01:34:07.305Z,99.90
2019-05-17T01:36:37.069Z,99.90
2019-05-17T01:39:17.069Z,99.90
2019-05-17T01:41:37.367Z,99.90
2019-05-17T01:44:07.533Z,99.90
2019-05-17T01:46:36.990Z,99.90
2019-05-17T01:49:06.855Z,99.90
2019-05-17T01:51:37.082Z,99.90
2019-05-17T01:54:06.807Z,99.90
2019-05-17T01:56:36.935Z,99.90
2019-05-17T01:59:06.798Z,99.90
2019-05-17T02:01:37.142Z,99.90
2019-05-17T02:04:06.753Z,99.90
2019-05-17T02:06:36.571Z,99.90
2019-05-17T02:09:07.283Z,99.90
2019-05-17T02:11:37.339Z,99.90
2019-05-17T02:14:07.080Z,99.90
2019-05-17T02:16:37.662Z,99.90
2019-05-17T02:19:06.889Z,99.90
2019-05-17T02:21:38.571Z,99.90
2019-05-17T02:24:07.979Z,99.90
2019-05-17T02:26:37.546Z,99.90
2019-05-17T02:29:11.958Z,99.90
2019-05-17T02:31:43.563Z,99.90
2019-05-17T02:34:14.251Z,99.90
2019-05-17T02:36:44.092Z,99.90
2019-05-17T02:39:13.302Z,99.90
2019-05-17T02:41:42.965Z,99.90
2019-05-17T02:44:13.033Z,99.90
2019-05-17T02:46:43.302Z,99.90
2019-05-17T02:49:13.810Z,99.90
2019-05-17T02:51:43.281Z,99.90
2019-05-17T02:54:13.287Z,99.90
2019-05-17T02:56:43.662Z,99.90
2019-05-17T02:59:13.543Z,99.90
2019-05-17T03:01:44.218Z,99.90
2019-05-17T03:04:13.636Z,99.90
2019-05-17T03:06:43.873Z,99.90
2019-05-17T03:09:13.177Z,99.90
2019-05-17T03:11:42.879Z,99.90
2019-05-17T03:14:12.957Z,99.90
2019-05-17T03:16:42.987Z,99.90
2019-05-17T03:19:13.202Z,99.90
2019-05-17T03:21:43.050Z,99.90
2019-05-17T03:24:13.755Z,99.90
2019-05-17T03:26:43.173Z,99.90
2019-05-17T03:29:13.737Z,99.90
2019-05-17T03:31:50.816Z,99.90
2019-05-17T03:34:16.764Z,99.90
2019-05-17T03:36:46.890Z,99.90
2019-05-17T03:39:16.193Z,99.90
2019-05-17T03:41:45.078Z,99.90
2019-05-17T03:44:13.992Z,99.90
2019-05-17T03:46:42.898Z,99.90
2019-05-17T03:49:13.125Z,99.90
2019-05-17T03:51:42.759Z,99.90
2019-05-17T03:54:13.874Z,99.90
2019-05-17T03:56:42.864Z,99.90
2019-05-17T03:59:13.123Z,99.90
2019-05-17T04:01:43.540Z,99.90
2019-05-17T04:04:13.618Z,99.90
2019-05-17T04:06:43.629Z,99.90
2019-05-17T04:09:14.046Z,99.90
2019-05-17T04:11:43.212Z,99.90
2019-05-17T04:14:13.961Z,99.90
2019-05-17T04:16:43.555Z,99.90
2019-05-17T04:19:13.933Z,99.90
2019-05-17T04:21:43.068Z,99.90
2019-05-17T04:24:13.940Z,99.90
2019-05-17T04:26:43.793Z,99.90
2019-05-17T04:29:13.725Z,99.90
2019-05-17T04:31:43.710Z,99.90
2019-05-17T04:34:13.473Z,99.90
2019-05-17T04:36:43.336Z,99.90
2019-05-17T04:39:13.329Z,99.90
2019-05-17T04:41:49.755Z,99.90
2019-05-17T04:44:13.679Z,99.90
2019-05-17T04:46:43.256Z,99.90
2019-05-17T04:49:18.482Z,99.90
2019-05-17T04:51:47.474Z,99.90
2019-05-17T04:54:16.348Z,99.90
2019-05-17T04:56:45.317Z,99.90
2019-05-17T04:59:14.285Z,99.90
2019-05-17T05:01:43.759Z,99.90
2019-05-17T05:04:15.578Z,99.90
2019-05-17T05:06:43.894Z,99.90
2019-05-17T05:09:12.965Z,99.90
2019-05-17T05:11:53.451Z,99.90
2019-05-17T05:14:12.964Z,99.90
2019-05-17T05:16:42.394Z,99.90
2019-05-17T05:19:13.109Z,99.90
2019-05-17T05:21:42.786Z,99.90
2019-05-17T05:24:11.747Z,99.90
2019-05-17T05:26:42.435Z,99.90
2019-05-17T05:29:12.777Z,99.90
2019-05-17T05:31:42.809Z,99.90
2019-05-17T05:34:12.498Z,99.90
2019-05-17T05:36:41.965Z,99.90
2019-05-17T05:39:11.654Z,99.90
2019-05-17T05:41:42.709Z,99.90
2019-05-17T05:44:12.215Z,99.90
2019-05-17T05:46:42.230Z,99.90
2019-05-17T05:49:12.380Z,99.90
2019-05-17T05:51:42.509Z,99.90
2019-05-17T05:54:12.351Z,99.90
2019-05-17T05:56:42.222Z,99.90
2019-05-17T05:59:12.149Z,99.90
2019-05-17T06:01:42.079Z,99.90
2019-05-17T06:04:11.750Z,99.90
2019-05-17T06:06:41.672Z,99.90
2019-05-17T06:09:12.041Z,99.90
2019-05-17T06:11:41.773Z,99.90
2019-05-17T06:14:12.160Z,99.90
2019-05-17T06:16:42.528Z,99.90
2019-05-17T06:19:11.773Z,99.90
2019-05-17T06:21:42.718Z,99.90
2019-05-17T06:24:11.937Z,99.90
2019-05-17T06:26:42.181Z,99.90
2019-05-17T06:29:11.805Z,99.90
2019-05-17T06:31:43.036Z,99.90
2019-05-17T06:34:12.678Z,99.90
2019-05-17T06:36:42.452Z,99.90
2019-05-17T06:39:11.804Z,99.90
2019-05-17T06:41:41.900Z,99.90
2019-05-17T06:44:12.187Z,99.90
2019-05-17T06:46:42.063Z,99.90
2019-05-17T06:49:11.884Z,99.90
2019-05-17T06:51:42.634Z,99.90
2019-05-17T06:54:12.109Z,99.90
2019-05-17T06:56:41.798Z,99.90
2019-05-17T06:59:11.043Z,99.90
2019-05-17T07:01:40.956Z,99.90
2019-05-17T07:04:10.377Z,99.90
2019-05-17T07:06:40.456Z,99.90
2019-05-17T07:09:10.175Z,99.90
2019-05-17T07:11:39.833Z,99.90
2019-05-17T07:14:09.421Z,99.90
2019-05-17T07:16:39.651Z,99.90
2019-05-17T07:19:10.325Z,99.90
2019-05-17T07:21:40.425Z,99.90
2019-05-17T07:24:10.141Z,99.90
2019-05-17T07:26:39.471Z,99.90
2019-05-17T07:29:10.020Z,99.90
2019-05-17T07:31:40.500Z,99.90
2019-05-17T07:34:09.628Z,99.90
2019-05-17T07:36:39.757Z,99.90
2019-05-17T07:39:10.747Z,99.90
2019-05-17T07:41:40.119Z,99.90
2019-05-17T07:44:09.958Z,99.90
2019-05-17T07:46:40.206Z,99.90
2019-05-17T07:49:10.778Z,99.90
2019-05-17T07:51:39.998Z,99.90
2019-05-17T07:54:10.438Z,99.90
2019-05-17T07:56:40.262Z,99.90
2019-05-17T07:59:09.660Z,99.90
2019-05-17T08:01:41.081Z,99.90
2019-05-17T08:04:10.008Z,99.90
2019-05-17T08:06:40.326Z,99.90
2019-05-17T08:09:13.767Z,99.90
2019-05-17T08:11:40.204Z,99.90
2019-05-17T08:14:10.520Z,99.90
2019-05-17T08:16:42.818Z,99.90
2019-05-17T08:19:11.703Z,99.90
2019-05-17T08:21:40.744Z,99.90
2019-05-17T08:24:10.500Z,99.90
2019-05-17T08:26:40.423Z,99.90
2019-05-17T08:29:10.027Z,99.90
2019-05-17T08:31:40.386Z,99.90
2019-05-17T08:34:10.393Z,99.90
2019-05-17T08:36:40.494Z,99.90
2019-05-17T08:39:10.245Z,99.90
2019-05-17T08:41:40.420Z,99.90
2019-05-17T08:44:10.174Z,99.90
2019-05-17T08:46:39.567Z,99.90
2019-05-17T08:49:09.732Z,99.90
2019-05-17T08:51:39.745Z,99.90
2019-05-17T08:54:10.332Z,99.90
2019-05-17T08:56:40.222Z,99.90
2019-05-17T08:59:09.778Z,99.90
2019-05-17T09:01:41.595Z,99.90
2019-05-17T09:04:12.346Z,99.90
2019-05-17T09:06:41.155Z,99.90
2019-05-17T09:09:10.216Z,99.90
2019-05-17T09:11:39.537Z,99.90
2019-05-17T09:14:10.496Z,99.90
2019-05-17T09:16:40.075Z,99.90
2019-05-17T09:19:10.074Z,99.90
2019-05-17T09:21:39.745Z,99.90
2019-05-17T09:24:10.433Z,99.90
2019-05-17T09:26:39.938Z,99.90
2019-05-17T09:29:12.351Z,99.90
2019-05-17T09:31:41.196Z,99.90
2019-05-17T09:34:10.190Z,99.90
2019-05-17T09:36:40.884Z,99.90
2019-05-17T09:39:09.961Z,99.90
2019-05-17T09:41:39.723Z,99.90
2019-05-17T09:44:15.613Z,99.90
2019-05-17T09:46:39.704Z,99.90
2019-05-17T09:49:10.426Z,99.90
2019-05-17T09:51:39.752Z,99.90
2019-05-17T09:54:10.293Z,99.90
2019-05-17T09:56:39.537Z,99.90
2019-05-17T09:59:09.998Z,99.90
2019-05-17T10:01:39.615Z,99.90
2019-05-17T10:04:13.004Z,99.90
2019-05-17T10:06:40.087Z,99.90
2019-05-17T10:09:09.670Z,99.90
2019-05-17T10:11:39.981Z,99.90
2019-05-17T10:14:11.427Z,99.90
2019-05-17T10:16:39.586Z,99.90
2019-05-17T10:19:09.588Z,99.90
2019-05-17T10:21:39.936Z,99.90
2019-05-17T10:24:09.562Z,99.90
2019-05-17T10:26:38.786Z,99.90
2019-05-17T10:29:09.874Z,99.90
2019-05-17T10:31:39.829Z,99.90
2019-05-17T10:34:09.600Z,99.90
2019-05-17T10:36:40.086Z,99.90
2019-05-17T10:39:10.029Z,99.90
2019-05-17T10:41:40.572Z,99.90
2019-05-17T10:44:09.909Z,93.40
2019-05-17T10:46:40.638Z,94.60
2019-05-17T10:49:10.922Z,95.90
2019-05-17T10:51:40.385Z,97.10
2019-05-17T10:54:09.740Z,99.40
2019-05-17T10:56:39.037Z,99.90
2019-05-17T10:59:09.807Z,99.90
2019-05-17T11:01:38.471Z,99.90
2019-05-17T11:04:07.452Z,99.90
2019-05-17T11:06:36.366Z,99.90
2019-05-17T11:09:06.711Z,99.90
2019-05-17T11:11:35.707Z,99.90
2019-05-17T11:14:04.721Z,99.90
2019-05-17T11:16:33.591Z,99.90
2019-05-17T11:19:02.600Z,99.90
2019-05-17T11:21:31.436Z,99.90
2019-05-17T11:24:00.417Z,99.90
2019-05-17T11:26:29.587Z,99.90
2019-05-17T11:28:58.533Z,99.90
2019-05-17T11:31:27.640Z,99.90
2019-05-17T11:33:56.539Z,99.90
2019-05-17T11:36:25.932Z,99.90
2019-05-17T11:38:54.967Z,99.90
2019-05-17T11:41:24.131Z,99.90
2019-05-17T11:43:53.364Z,99.90
2019-05-17T11:46:35.310Z,99.90
2019-05-17T11:48:53.354Z,99.90
2019-05-17T11:51:22.232Z,99.90
2019-05-17T11:53:51.333Z,99.90
2019-05-17T11:56:20.153Z,99.90
2019-05-17T11:58:49.012Z,99.90
2019-05-17T12:01:17.931Z,99.90
2019-05-17T12:03:47.232Z,99.90
2019-05-17T12:06:16.267Z,99.90
2019-05-17T12:08:45.286Z,99.90
2019-05-17T12:11:14.129Z,99.90
2019-05-17T12:13:43.747Z,99.90
2019-05-17T12:16:12.980Z,99.90
2019-05-17T12:18:41.972Z,99.90
2019-05-17T12:21:10.883Z,99.90
2019-05-17T12:23:39.777Z,99.90
2019-05-17T12:26:08.773Z,99.90
2019-05-17T12:28:37.939Z,99.60
2019-05-17T12:31:06.835Z,99.90
2019-05-17T12:33:35.834Z,99.90
2019-05-17T12:36:05.666Z,99.90
2019-05-17T12:38:34.584Z,99.90
2019-05-17T12:41:03.542Z,98.40
2019-05-17T12:43:32.554Z,98.50
2019-05-17T12:46:01.861Z,96.20
2019-05-17T12:48:30.899Z,97.90
2019-05-17T12:50:59.857Z,99.20
2019-05-17T12:53:28.701Z,99.60
2019-05-17T12:55:57.535Z,99.80
2019-05-17T12:58:26.316Z,99.90
2019-05-17T13:00:55.271Z,99.90
2019-05-17T13:03:24.222Z,99.90
2019-05-17T13:05:53.063Z,99.90
2019-05-17T13:08:21.954Z,99.90
2019-05-17T13:10:50.867Z,99.90
2019-05-17T13:13:19.788Z,99.90
2019-05-17T13:15:49.064Z,99.90
2019-05-17T13:18:18.007Z,99.90
2019-05-17T13:20:47.007Z,99.90
2019-05-17T13:23:15.912Z,99.90
2019-05-17T13:25:45.180Z,99.90
2019-05-17T13:28:13.998Z,99.90
2019-05-17T13:30:42.950Z,99.90
2019-05-17T13:33:11.894Z,99.90
2019-05-17T13:35:40.726Z,99.90
2019-05-17T13:38:09.564Z,99.90
2019-05-17T13:40:39.878Z,99.90
2019-05-17T13:43:09.460Z,99.90
2019-05-17T13:45:38.341Z,99.90
2019-05-17T13:48:07.466Z,99.90
2019-05-17T13:50:36.402Z,99.90
2019-05-17T13:53:05.397Z,99.90
2019-05-17T13:55:34.336Z,99.90
2019-05-17T13:58:03.555Z,99.90
2019-05-17T14:00:32.545Z,99.90
2019-05-17T14:03:01.551Z,99.90
2019-05-17T14:05:30.397Z,99.90
2019-05-17T14:07:59.248Z,99.90
2019-05-17T14:10:31.538Z,99.90
2019-05-17T14:12:58.813Z,99.90
2019-05-17T14:15:27.831Z,99.90
2019-05-17T14:17:56.703Z,99.90
2019-05-17T14:20:25.716Z,99.90
2019-05-17T14:22:54.670Z,99.90
2019-05-17T14:25:23.544Z,99.90
2019-05-17T14:27:52.472Z,99.90
2019-05-17T14:30:21.483Z,99.90
2019-05-17T14:32:50.426Z,99.90
2019-05-17T14:35:19.370Z,99.90
2019-05-17T14:37:48.243Z,99.90
2019-05-17T14:40:17.414Z,99.90
2019-05-17T14:42:46.334Z,99.90
2019-05-17T14:45:15.319Z,99.90
2019-05-17T14:47:44.316Z,99.90
2019-05-17T14:50:13.716Z,99.90
2019-05-17T14:52:42.625Z,99.90
2019-05-17T14:55:11.820Z,99.90
2019-05-17T14:57:42.966Z,99.90
2019-05-17T15:00:12.060Z,99.90
2019-05-17T15:02:41.039Z,99.90
2019-05-17T15:05:10.293Z,99.90
2019-05-17T15:07:39.293Z,99.90
2019-05-17T15:10:08.662Z,99.90
2019-05-17T15:12:37.646Z,99.90
2019-05-17T15:15:06.839Z,99.90
2019-05-17T15:17:35.732Z,99.90
2019-05-17T15:20:05.124Z,99.90
2019-05-17T15:22:34.049Z,99.70
2019-05-17T15:25:02.938Z,99.90
2019-05-17T15:27:31.907Z,99.90
2019-05-17T15:30:00.882Z,99.90
2019-05-17T15:32:29.856Z,99.90
2019-05-17T15:34:58.827Z,99.90
2019-05-17T15:37:27.721Z,99.90
2019-05-17T15:39:56.636Z,99.90
2019-05-17T15:42:25.519Z,99.90
2019-05-17T15:44:54.425Z,99.90
2019-05-17T15:47:23.309Z,99.40
2019-05-17T15:49:52.462Z,99.80
2019-05-17T15:52:21.336Z,99.90
2019-05-17T15:54:50.242Z,98.90
2019-05-17T15:57:19.266Z,99.40
2019-05-17T15:59:48.400Z,99.30
2019-05-17T16:02:17.432Z,99.90
2019-05-17T16:04:46.393Z,99.80
2019-05-17T16:07:15.429Z,99.60
2019-05-17T16:09:44.477Z,99.70
2019-05-17T16:12:13.474Z,99.90
2019-05-17T16:14:42.370Z,99.90
2019-05-17T16:17:11.336Z,99.90
2019-05-17T16:19:40.269Z,99.90
2019-05-17T16:22:09.178Z,99.90
2019-05-17T16:24:38.245Z,99.90
2019-05-17T16:27:07.428Z,99.90
2019-05-17T16:29:36.430Z,99.90
2019-05-17T16:32:05.585Z,99.90
2019-05-17T16:34:34.635Z,99.90
2019-05-17T16:37:03.520Z,99.90
2019-05-17T16:39:32.375Z,99.90
2019-05-17T16:42:01.335Z,99.90
2019-05-17T16:44:30.360Z,99.90
2019-05-17T16:46:59.250Z,99.90
2019-05-17T16:49:28.634Z,99.90
2019-05-17T16:51:57.732Z,99.90
2019-05-17T16:54:26.762Z,99.90
2019-05-17T16:56:55.760Z,99.90
2019-05-17T16:59:24.844Z,99.90
2019-05-17T17:01:53.758Z,99.90
2019-05-17T17:04:22.664Z,99.90
2019-05-17T17:06:51.485Z,99.90
2019-05-17T17:09:20.459Z,99.90
2019-05-17T17:11:49.385Z,99.90
2019-05-17T17:14:18.360Z,99.90
2019-05-17T17:16:47.319Z,99.90
2019-05-17T17:19:16.320Z,99.90
2019-05-17T17:21:45.193Z,99.90
2019-05-17T17:24:14.272Z,99.90
2019-05-17T17:26:43.400Z,99.90
2019-05-17T17:29:12.208Z,99.90
2019-05-17T17:31:41.069Z,99.90
2019-05-17T17:34:10.085Z,99.90
2019-05-17T17:36:38.906Z,99.90
2019-05-17T17:39:08.272Z,99.90
2019-05-17T17:41:37.298Z,99.90
2019-05-17T17:44:06.306Z,99.90
2019-05-17T17:46:35.268Z,99.90
2019-05-17T17:49:04.170Z,99.90
2019-05-17T17:51:33.079Z,99.90
2019-05-17T17:54:01.996Z,99.90
2019-05-17T17:56:30.921Z,99.90
2019-05-17T17:59:00.067Z,99.90
2019-05-17T18:01:29.146Z,99.90
2019-05-17T18:03:58.254Z,99.90
2019-05-17T18:06:27.137Z,99.90
2019-05-17T18:08:56.177Z,99.90
2019-05-17T18:11:25.164Z,99.90
2019-05-17T18:13:54.161Z,99.90
2019-05-17T18:16:23.259Z,99.90
2019-05-17T18:18:52.173Z,99.90
2019-05-17T18:21:21.056Z,99.90
2019-05-17T18:23:50.009Z,99.90
2019-05-17T18:26:19.039Z,99.90
2019-05-17T18:28:48.014Z,99.90
2019-05-17T18:31:16.961Z,99.90
2019-05-17T18:33:45.977Z,99.90
2019-05-17T18:36:15.031Z,99.90
2019-05-17T18:38:47.383Z,99.90
2019-05-17T18:41:16.430Z,99.90
2019-05-17T18:43:45.333Z,99.90
2019-05-17T18:46:14.376Z,99.90
2019-05-17T18:48:43.311Z,99.90
2019-05-17T18:51:12.249Z,99.90
2019-05-17T18:53:42.750Z,99.90
2019-05-17T18:56:11.957Z,99.90
2019-05-17T18:58:40.759Z,99.90
2019-05-17T19:01:09.661Z,99.90
2019-05-17T19:03:38.604Z,99.90
2019-05-17T19:06:07.486Z,99.90
2019-05-17T19:08:36.379Z,99.90
2019-05-17T19:11:05.563Z,99.90
2019-05-17T19:13:34.609Z,99.90
2019-05-17T19:16:03.493Z,99.90
2019-05-17T19:18:34.250Z,99.90
2019-05-17T19:21:03.266Z,99.90
2019-05-17T19:23:32.133Z,99.90
2019-05-17T19:26:00.983Z,99.90
2019-05-17T19:28:29.826Z,99.90
2019-05-17T19:30:58.624Z,99.90
2019-05-17T19:33:27.447Z,99.90
2019-05-17T19:35:56.488Z,99.90
2019-05-17T19:38:25.294Z,99.90
2019-05-17T19:40:54.207Z,99.90
2019-05-17T19:43:23.097Z,99.90
2019-05-17T19:45:52.069Z,99.90
2019-05-17T19:48:20.985Z,99.90
2019-05-17T19:50:49.985Z,99.90
2019-05-17T19:53:18.784Z,99.90
2019-05-17T19:55:47.844Z,99.90
2019-05-17T19:58:17.218Z,99.90
2019-05-17T20:00:46.275Z,99.90
2019-05-17T20:03:15.202Z,99.90
2019-05-17T20:05:44.197Z,99.90
2019-05-17T20:08:13.202Z,99.90
2019-05-17T20:10:42.384Z,99.90
2019-05-17T20:13:11.359Z,99.90
2019-05-17T20:15:40.272Z,99.90
2019-05-17T20:18:09.441Z,99.90
2019-05-17T20:20:38.391Z,99.90
2019-05-17T20:23:07.380Z,99.90
2019-05-17T20:25:36.366Z,99.90
2019-05-17T20:28:05.381Z,99.90
2019-05-17T20:30:34.404Z,99.90
2019-05-17T20:33:03.451Z,99.90
2019-05-17T20:35:32.446Z,99.90
2019-05-17T20:38:01.294Z,99.90
2019-05-17T20:40:30.161Z,99.90
2019-05-17T20:42:59.165Z,99.90
2019-05-17T20:45:33.574Z,99.90
2019-05-17T20:48:01.956Z,99.90
2019-05-17T20:50:30.932Z,99.90
2019-05-17T20:53:00.047Z,99.90
2019-05-17T20:55:29.103Z,99.90
2019-05-17T20:57:58.067Z,99.90
2019-05-17T21:00:27.099Z,99.90
2019-05-17T21:02:56.097Z,99.90
2019-05-17T21:05:25.051Z,99.90
2019-05-17T21:07:54.175Z,99.90
2019-05-17T21:10:23.122Z,99.90
2019-05-17T21:12:52.101Z,99.90
2019-05-17T21:15:21.222Z,99.90
2019-05-17T21:17:50.298Z,99.90
2019-05-17T21:20:20.242Z,99.90
2019-05-17T21:22:49.518Z,99.90
2019-05-17T21:25:18.774Z,99.90
2019-05-17T21:27:48.135Z,99.90
2019-05-17T21:30:17.375Z,99.90
2019-05-17T21:32:46.405Z,99.90
2019-05-17T21:35:16.902Z,99.90
2019-05-17T21:37:45.853Z,99.90
2019-05-17T21:40:15.271Z,99.90
2019-05-17T21:42:44.238Z,99.90
2019-05-17T21:45:13.416Z,99.90
2019-05-17T21:47:42.327Z,99.90
2019-05-17T21:50:12.471Z,99.90
2019-05-17T21:52:41.653Z,99.90
2019-05-17T21:55:10.713Z,99.90
2019-05-17T21:57:39.783Z,99.90
2019-05-17T22:00:15.556Z,99.90
2019-05-17T22:02:44.506Z,99.90
2019-05-17T22:05:13.481Z,99.90
2019-05-17T22:07:42.304Z,99.90
2019-05-17T22:10:11.574Z,99.90
2019-05-17T22:12:40.591Z,99.90
2019-05-17T22:15:09.939Z,99.90
2019-05-17T22:17:39.061Z,99.90
2019-05-17T22:20:08.325Z,99.90
2019-05-17T22:22:37.370Z,99.90
2019-05-17T22:25:06.422Z,99.90
2019-05-17T22:27:35.446Z,99.90
2019-05-17T22:30:04.860Z,99.90
2019-05-17T22:32:33.872Z,99.90
2019-05-17T22:35:02.714Z,99.90
2019-05-17T22:37:31.865Z,99.90
2019-05-17T22:40:00.727Z,99.90
2019-05-17T22:42:29.726Z,99.90
2019-05-17T22:44:58.612Z,99.90
2019-05-17T22:47:27.608Z,99.90
2019-05-17T22:49:56.749Z,99.90
2019-05-17T22:52:26.165Z,99.90
2019-05-17T22:54:55.191Z,99.90
2019-05-17T22:57:24.207Z,99.90
2019-05-17T22:59:53.189Z,99.90
2019-05-17T23:02:22.097Z,99.90
2019-05-17T23:05:00.421Z,99.90
2019-05-17T23:07:29.241Z,99.90
2019-05-17T23:09:58.071Z,99.90
2019-05-17T23:12:26.899Z,99.90
2019-05-17T23:15:01.874Z,99.90
2019-05-17T23:17:30.917Z,99.90
2019-05-17T23:19:59.924Z,99.90
2019-05-17T23:22:28.807Z,99.90
2019-05-17T23:24:57.679Z,99.90
2019-05-17T23:27:26.553Z,99.90
2019-05-17T23:29:55.347Z,99.90
2019-05-17T23:32:24.363Z,99.90
2019-05-17T23:34:56.496Z,99.90
2019-05-17T23:37:25.448Z,99.90
2019-05-17T23:39:54.377Z,99.90
2019-05-17T23:42:23.237Z,99.90
2019-05-17T23:44:52.069Z,99.90
2019-05-17T23:47:21.050Z,99.90
2019-05-17T23:49:49.955Z,99.90
2019-05-17T23:52:18.788Z,99.90
2019-05-17T23:54:47.642Z,99.90
2019-05-17T23:57:16.536Z,99.90
2019-05-17T23:59:45.441Z,99.90
